createdAt,value
2018-03-23T00:01:17.736Z,37.33
2018-03-23T00:03:45.261Z,37.00
2018-03-23T00:06:12.749Z,37.30
2018-03-23T00:08:41.038Z,37.03
2018-03-23T00:11:09.301Z,37.10
2018-03-23T00:13:36.812Z,36.57
2018-03-23T00:16:04.307Z,37.00
2018-03-23T00:18:31.823Z,36.90
2018-03-23T00:20:59.300Z,38.80
2018-03-23T00:23:27.588Z,38.77
2018-03-23T00:25:55.841Z,38.00
2018-03-23T00:28:23.350Z,37.33
2018-03-23T00:30:50.845Z,38.50
2018-03-23T00:33:18.363Z,38.03
2018-03-23T00:35:45.867Z,38.27
2018-03-23T00:38:14.156Z,37.10
2018-03-23T00:40:42.424Z,37.90
2018-03-23T00:43:09.937Z,38.13
2018-03-23T00:45:37.433Z,39.30
2018-03-23T00:48:04.959Z,39.03
2018-03-23T00:50:33.226Z,40.00
2018-03-23T00:53:00.744Z,37.93
2018-03-23T00:55:28.239Z,38.87
2018-03-23T00:57:55.754Z,39.30
2018-03-23T01:00:24.073Z,41.67
2018-03-23T01:02:51.605Z,38.60
2018-03-23T01:05:19.108Z,39.53
2018-03-23T01:07:46.634Z,39.10
2018-03-23T01:10:14.134Z,42.90
2018-03-23T01:12:42.431Z,37.20
2018-03-23T01:15:10.689Z,38.70
2018-03-23T01:17:38.205Z,37.63
2018-03-23T01:20:05.707Z,39.43
2018-03-23T01:22:33.260Z,40.67
2018-03-23T01:25:00.752Z,41.77
2018-03-23T01:27:28.271Z,40.50
2018-03-23T01:29:56.538Z,38.53
2018-03-23T01:32:24.060Z,38.57
2018-03-23T01:34:51.555Z,37.20
2018-03-23T01:37:19.071Z,36.80
2018-03-23T01:39:46.564Z,38.83
2018-03-23T01:42:14.103Z,40.53
2018-03-23T01:44:41.593Z,36.87
2018-03-23T01:47:09.880Z,37.90
2018-03-23T01:49:38.192Z,38.83
2018-03-23T01:52:05.720Z,41.63
2018-03-23T01:54:33.211Z,40.30
2018-03-23T01:57:01.507Z,36.90
2018-03-23T01:59:29.788Z,37.20
2018-03-23T02:01:57.307Z,37.17
2018-03-23T02:07:16.176Z,38.27
2018-03-23T02:09:44.427Z,36.63
2018-03-23T02:12:11.951Z,37.40
2018-03-23T02:14:39.440Z,38.37
2018-03-23T02:17:06.958Z,38.47
2018-03-23T02:19:34.447Z,41.80
2018-03-23T02:22:02.749Z,37.47
2018-03-23T02:24:30.248Z,37.60
2018-03-23T02:26:57.764Z,40.83
2018-03-23T02:29:25.273Z,40.53
2018-03-23T02:31:52.776Z,35.73
2018-03-23T02:34:20.284Z,38.47
2018-03-23T02:36:47.828Z,37.57
2018-03-23T02:39:15.321Z,40.70
2018-03-23T02:41:42.844Z,36.90
2018-03-23T02:44:10.328Z,36.03
2018-03-23T02:46:37.850Z,36.37
2018-03-23T02:49:06.107Z,37.50
2018-03-23T02:51:33.611Z,37.10
2018-03-23T02:54:01.148Z,37.47
2018-03-23T02:56:28.660Z,36.50
2018-03-23T02:58:56.176Z,35.40
2018-03-23T03:01:23.658Z,34.20
2018-03-23T03:03:51.180Z,33.50
2018-03-23T03:06:18.671Z,32.60
2018-03-23T03:08:46.192Z,34.37
2018-03-23T03:11:13.676Z,33.93
2018-03-23T03:13:41.951Z,34.80
2018-03-23T03:16:09.441Z,31.93
2018-03-23T03:18:36.988Z,33.67
2018-03-23T03:21:04.484Z,34.27
2018-03-23T03:23:32.758Z,33.90
2018-03-23T03:26:00.235Z,33.30
2018-03-23T03:28:28.516Z,31.03
2018-03-23T03:30:55.996Z,33.77
2018-03-23T03:33:24.279Z,33.10
2018-03-23T03:35:52.532Z,33.23
2018-03-23T03:38:20.609Z,33.20
2018-03-23T03:40:48.385Z,35.47
2018-03-23T03:43:15.898Z,32.17
2018-03-23T03:45:43.392Z,35.63
2018-03-23T03:48:10.907Z,32.90
2018-03-23T03:50:38.383Z,33.90
2018-03-23T03:53:05.898Z,34.87
2018-03-23T03:55:34.146Z,34.17
2018-03-23T03:58:01.709Z,30.60
2018-03-23T04:00:29.155Z,32.47
2018-03-23T04:02:56.671Z,33.67
2018-03-23T04:05:24.155Z,34.30
2018-03-23T04:07:51.671Z,33.73
2018-03-23T04:10:19.150Z,32.50
2018-03-23T04:12:46.677Z,30.13
2018-03-23T04:15:14.927Z,30.07
2018-03-23T04:17:42.432Z,28.93
2018-03-23T04:20:09.920Z,28.10
2018-03-23T04:22:37.464Z,29.27
2018-03-23T04:25:04.949Z,29.30
2018-03-23T04:27:33.233Z,32.87
2018-03-23T04:30:01.480Z,32.77
2018-03-23T04:32:29.000Z,33.60
2018-03-23T04:34:56.481Z,37.60
2018-03-23T04:37:23.967Z,36.40
2018-03-23T04:39:51.487Z,34.33
2018-03-23T04:42:18.996Z,40.23
2018-03-23T04:44:46.515Z,42.67
2018-03-23T04:47:13.998Z,41.43
2018-03-23T04:49:41.521Z,42.83
2018-03-23T04:52:09.004Z,42.83
2018-03-23T04:54:36.519Z,42.00
2018-03-23T04:57:04.035Z,41.27
2018-03-23T04:59:31.580Z,40.83
2018-03-23T05:01:59.074Z,41.80
2018-03-23T05:04:26.595Z,42.73
2018-03-23T05:06:54.108Z,41.43
2018-03-23T05:09:22.387Z,40.50
2018-03-23T05:11:50.635Z,39.53
2018-03-23T05:14:18.159Z,41.43
2018-03-23T05:16:45.644Z,38.87
2018-03-23T05:19:13.155Z,40.73
2018-03-23T05:21:40.630Z,37.63
2018-03-23T05:24:08.215Z,37.13
2018-03-23T05:26:35.788Z,38.27
2018-03-23T05:29:03.279Z,37.20
2018-03-23T05:31:30.885Z,37.63
2018-03-23T05:33:58.442Z,35.93
2018-03-23T05:36:26.041Z,33.80
2018-03-23T05:38:53.558Z,35.60
2018-03-23T05:41:22.048Z,35.70
2018-03-23T05:43:49.564Z,36.93
2018-03-23T05:46:17.349Z,35.97
2018-03-23T05:48:56.646Z,34.70
2018-03-23T05:51:24.135Z,34.17
2018-03-23T05:53:52.420Z,35.20
2018-03-23T05:56:20.684Z,34.37
2018-03-23T05:58:48.212Z,34.30
2018-03-23T06:01:15.761Z,33.73
2018-03-23T06:03:43.318Z,33.33
2018-03-23T06:06:10.786Z,34.80
2018-03-23T06:08:38.299Z,33.10
2018-03-23T06:11:05.831Z,35.60
2018-03-23T06:13:33.422Z,34.60
2018-03-23T06:16:00.922Z,31.90
2018-03-23T06:18:28.575Z,34.50
2018-03-23T06:20:56.109Z,31.03
2018-03-23T06:23:23.627Z,33.23
2018-03-23T06:25:51.115Z,29.50
2018-03-23T06:28:18.692Z,33.67
2018-03-23T06:30:46.185Z,32.83
2018-03-23T06:33:13.719Z,36.20
2018-03-23T06:35:41.237Z,34.73
2018-03-23T06:38:09.503Z,29.60
2018-03-23T06:40:37.018Z,32.20
2018-03-23T06:43:05.272Z,32.80
2018-03-23T06:45:32.796Z,33.80
2018-03-23T06:48:00.323Z,30.27
2018-03-23T06:50:27.836Z,27.67
2018-03-23T06:52:56.094Z,28.33
2018-03-23T06:55:23.630Z,30.87
2018-03-23T06:57:51.122Z,33.47
2018-03-23T07:00:18.627Z,34.77
2018-03-23T07:02:46.879Z,29.23
2018-03-23T07:05:14.413Z,26.87
2018-03-23T07:07:41.943Z,28.33
2018-03-23T07:10:09.480Z,28.47
2018-03-23T07:12:36.976Z,28.27
2018-03-23T07:15:04.512Z,26.77
2018-03-23T07:17:31.990Z,26.07
2018-03-23T07:19:59.502Z,26.30
2018-03-23T07:22:27.265Z,27.10
2018-03-23T07:24:54.788Z,26.10
2018-03-23T07:27:22.312Z,24.60
2018-03-23T07:29:49.798Z,23.40
2018-03-23T07:32:18.059Z,23.17
2018-03-23T07:34:45.576Z,21.43
2018-03-23T07:37:13.881Z,23.40
2018-03-23T07:39:41.399Z,22.60
2018-03-23T07:42:08.887Z,24.10
2018-03-23T07:44:36.400Z,20.67
2018-03-23T07:47:03.886Z,20.67
2018-03-23T07:49:31.396Z,19.00
2018-03-23T07:51:58.879Z,20.57
2018-03-23T07:54:27.176Z,19.33
2018-03-23T07:56:54.670Z,18.40
2018-03-23T07:59:23.654Z,19.90
2018-03-23T08:01:51.912Z,19.80
2018-03-23T08:04:19.435Z,18.90
2018-03-23T08:06:46.918Z,18.87
2018-03-23T08:09:14.499Z,17.90
2018-03-23T08:11:42.002Z,16.90
2018-03-23T08:14:09.521Z,17.00
2018-03-23T08:16:37.024Z,17.00
2018-03-23T08:19:04.571Z,17.37
2018-03-23T08:21:32.059Z,16.20
2018-03-23T08:23:59.592Z,17.60
2018-03-23T08:26:27.851Z,16.20
2018-03-23T08:28:55.360Z,16.90
2018-03-23T08:31:22.847Z,16.17
2018-03-23T08:33:50.375Z,16.37
2018-03-23T08:36:17.908Z,16.33
2018-03-23T08:38:45.459Z,14.77
2018-03-23T08:41:12.944Z,15.83
2018-03-23T08:43:40.475Z,14.43
2018-03-23T08:46:08.734Z,13.80
2018-03-23T08:48:36.295Z,13.67
2018-03-23T08:51:03.810Z,13.50
2018-03-23T08:53:32.112Z,11.50
2018-03-23T08:55:59.595Z,12.23
2018-03-23T08:58:27.111Z,13.00
2018-03-23T09:00:54.601Z,12.60
2018-03-23T09:03:22.139Z,13.00
2018-03-23T09:05:49.652Z,12.23
2018-03-23T09:08:17.167Z,12.00
2018-03-23T09:10:44.648Z,12.93
2018-03-23T09:13:12.168Z,12.90
2018-03-23T09:15:40.423Z,12.60
2018-03-23T09:18:07.944Z,13.30
2018-03-23T09:20:35.493Z,12.10
2018-03-23T09:23:02.968Z,13.50
2018-03-23T09:25:31.221Z,12.57
2018-03-23T09:27:58.762Z,14.50
2018-03-23T09:30:26.268Z,12.57
2018-03-23T09:32:53.790Z,13.60
2018-03-23T09:35:21.279Z,13.07
2018-03-23T09:37:48.804Z,13.73
2018-03-23T09:40:16.295Z,13.27
2018-03-23T09:42:44.579Z,14.00
2018-03-23T09:45:12.832Z,13.70
2018-03-23T09:47:40.351Z,13.50
2018-03-23T09:50:07.843Z,13.60
2018-03-23T09:52:35.363Z,12.90
2018-03-23T09:55:02.855Z,13.37
2018-03-23T09:57:31.111Z,13.63
2018-03-23T09:59:58.634Z,14.80
2018-03-23T10:02:26.119Z,15.10
2018-03-23T10:04:53.646Z,13.47
2018-03-23T10:07:21.900Z,16.10
2018-03-23T10:09:49.416Z,14.50
2018-03-23T10:12:17.671Z,13.07
2018-03-23T10:14:45.194Z,13.67
2018-03-23T10:17:12.691Z,14.77
2018-03-23T10:19:40.216Z,13.70
2018-03-23T10:22:08.472Z,12.40
2018-03-23T10:24:36.001Z,12.83
2018-03-23T10:27:03.495Z,12.93
2018-03-23T10:29:31.007Z,12.77
2018-03-23T10:31:58.516Z,12.80
2018-03-23T10:34:26.023Z,14.40
2018-03-23T10:36:53.539Z,13.00
2018-03-23T10:39:21.819Z,13.70
2018-03-23T10:41:50.077Z,13.00
2018-03-23T10:44:17.598Z,14.67
2018-03-23T10:46:45.155Z,14.40
2018-03-23T10:49:12.650Z,14.40
2018-03-23T10:51:40.140Z,14.40
2018-03-23T10:54:07.664Z,14.50
2018-03-23T10:56:35.931Z,14.40
2018-03-23T10:59:03.460Z,13.20
2018-03-23T11:01:31.793Z,14.83
2018-03-23T11:03:59.365Z,14.30
2018-03-23T11:06:26.869Z,14.57
2018-03-23T11:08:54.516Z,15.30
2018-03-23T11:11:22.003Z,14.60
2018-03-23T11:13:50.293Z,14.90
2018-03-23T11:16:17.812Z,15.00
2018-03-23T11:18:45.335Z,15.57
2018-03-23T11:21:13.603Z,14.60
2018-03-23T11:23:41.122Z,15.47
2018-03-23T11:26:08.675Z,15.80
2018-03-23T11:28:36.971Z,15.40
2018-03-23T11:31:05.351Z,14.70
2018-03-23T11:33:33.630Z,15.47
2018-03-23T11:36:01.123Z,14.20
2018-03-23T11:38:29.408Z,16.67
2018-03-23T11:40:57.679Z,14.47
2018-03-23T11:43:25.216Z,13.67
2018-03-23T11:45:52.733Z,15.80
2018-03-23T11:48:21.040Z,13.83
2018-03-23T11:50:48.603Z,12.90
2018-03-23T11:53:17.003Z,13.17
2018-03-23T11:55:44.511Z,14.20
2018-03-23T11:58:12.047Z,13.90
2018-03-23T12:00:40.314Z,13.50
2018-03-23T12:03:09.377Z,14.10
2018-03-23T12:05:36.863Z,14.33
2018-03-23T12:08:04.376Z,17.20
2018-03-23T12:10:31.863Z,13.73
2018-03-23T12:12:59.379Z,13.80
2018-03-23T12:15:26.869Z,13.33
2018-03-23T12:17:54.400Z,13.30
2018-03-23T12:20:22.658Z,12.83
2018-03-23T12:22:51.015Z,13.40
2018-03-23T12:25:18.756Z,13.67
2018-03-23T12:27:46.325Z,14.10
2018-03-23T12:30:13.820Z,13.10
2018-03-23T12:32:41.356Z,13.00
2018-03-23T12:35:08.852Z,12.67
2018-03-23T12:37:36.378Z,12.40
2018-03-23T12:40:04.645Z,13.90
2018-03-23T12:42:32.167Z,15.00
2018-03-23T12:44:59.675Z,13.77
2018-03-23T12:47:27.212Z,13.63
2018-03-23T12:49:54.703Z,13.83
2018-03-23T12:52:22.216Z,13.17
2018-03-23T12:54:49.711Z,14.30
2018-03-23T12:57:17.243Z,14.50
2018-03-23T12:59:44.738Z,15.53
2018-03-23T13:02:13.020Z,14.57
2018-03-23T13:04:41.268Z,15.17
2018-03-23T13:07:08.831Z,13.50
2018-03-23T13:09:36.312Z,13.60
2018-03-23T13:12:03.827Z,11.97
2018-03-23T13:14:32.074Z,12.73
2018-03-23T13:16:59.636Z,11.67
2018-03-23T13:19:27.139Z,10.73
2018-03-23T13:21:54.672Z,11.10
2018-03-23T13:24:22.156Z,10.63
2018-03-23T13:26:49.712Z,9.10
2018-03-23T13:29:17.212Z,10.33
2018-03-23T13:31:44.708Z,9.10
2018-03-23T13:34:12.998Z,9.60
2018-03-23T13:36:40.498Z,9.30
2018-03-23T13:39:08.031Z,8.67
2018-03-23T13:41:35.559Z,9.73
2018-03-23T13:44:03.147Z,7.87
2018-03-23T13:46:30.679Z,8.50
2018-03-23T13:48:58.221Z,7.37
2018-03-23T13:51:25.708Z,7.50
2018-03-23T13:53:53.235Z,7.90
2018-03-23T13:56:20.731Z,8.63
2018-03-23T13:58:53.868Z,8.53
2018-03-23T14:01:26.965Z,8.30
2018-03-23T14:03:55.251Z,8.57
2018-03-23T14:06:22.764Z,8.70
2018-03-23T14:08:50.286Z,8.30
2018-03-23T14:11:17.776Z,6.80
2018-03-23T14:13:45.310Z,7.03
2018-03-23T14:16:12.811Z,8.00
2018-03-23T14:18:41.095Z,8.40
2018-03-23T14:21:08.599Z,7.90
2018-03-23T14:23:36.109Z,8.07
2018-03-23T14:26:03.625Z,9.30
2018-03-23T14:28:31.151Z,8.40
2018-03-23T14:30:58.628Z,8.03
2018-03-23T14:33:26.179Z,7.73
2018-03-23T14:35:53.665Z,7.80
2018-03-23T14:38:21.181Z,7.30
2018-03-23T14:40:48.694Z,8.10
2018-03-23T14:43:16.215Z,8.63
2018-03-23T14:45:44.458Z,7.80
2018-03-23T14:48:11.994Z,6.63
2018-03-23T14:50:39.477Z,6.83
2018-03-23T14:53:06.996Z,7.97
2018-03-23T14:55:35.971Z,6.90
2018-03-23T14:58:03.671Z,6.80
2018-03-23T15:00:31.171Z,6.77
2018-03-23T15:02:58.704Z,7.20
2018-03-23T15:05:26.185Z,6.57
2018-03-23T15:07:53.703Z,6.03
2018-03-23T15:10:21.175Z,5.20
2018-03-23T15:12:48.683Z,6.20
2018-03-23T15:15:16.209Z,6.20
2018-03-23T15:17:43.733Z,6.00
2018-03-23T15:20:11.305Z,5.17
2018-03-23T15:22:38.878Z,5.50
2018-03-23T15:25:06.367Z,5.00
2018-03-23T15:27:34.680Z,5.63
2018-03-23T15:30:02.180Z,4.20
2018-03-23T15:32:29.692Z,4.93
2018-03-23T15:34:57.188Z,4.70
2018-03-23T15:37:25.470Z,4.83
2018-03-23T15:39:52.956Z,5.10
2018-03-23T15:42:20.468Z,4.60
2018-03-23T15:44:47.963Z,4.63
2018-03-23T15:47:15.586Z,5.67
2018-03-23T15:49:43.102Z,5.87
2018-03-23T15:52:10.620Z,6.70
2018-03-23T15:54:38.132Z,5.90
2018-03-23T15:57:05.706Z,6.83
2018-03-23T15:59:33.258Z,6.77
2018-03-23T16:02:00.842Z,6.63
2018-03-23T16:04:29.101Z,6.23
2018-03-23T16:06:56.604Z,7.00
2018-03-23T16:09:24.152Z,7.33
2018-03-23T16:11:51.657Z,6.50
2018-03-23T16:14:19.171Z,6.60
2018-03-23T16:16:47.423Z,7.33
2018-03-23T16:19:15.032Z,7.53
2018-03-23T16:21:43.326Z,6.57
2018-03-23T16:24:10.848Z,7.43
2018-03-23T16:26:38.351Z,7.07
2018-03-23T16:29:06.620Z,7.57
2018-03-23T16:31:34.140Z,7.60
2018-03-23T16:34:01.679Z,9.20
2018-03-23T16:36:29.163Z,9.30
2018-03-23T16:38:57.447Z,9.50
2018-03-23T16:41:25.745Z,9.00
2018-03-23T16:43:53.294Z,9.30
2018-03-23T16:46:20.783Z,8.67
2018-03-23T16:48:49.075Z,9.20
2018-03-23T16:51:17.355Z,8.80
2018-03-23T16:53:45.629Z,8.37
2018-03-23T16:56:13.151Z,9.30
2018-03-23T16:58:40.700Z,8.63
2018-03-23T17:01:08.240Z,8.50
2018-03-23T17:03:35.817Z,8.57
2018-03-23T17:06:03.323Z,8.07
2018-03-23T17:08:31.656Z,9.13
2018-03-23T17:10:59.223Z,10.30
2018-03-23T17:13:27.270Z,10.43
2018-03-23T17:15:54.782Z,9.70
2018-03-23T17:18:22.297Z,10.67
2018-03-23T17:20:49.817Z,11.27
2018-03-23T17:23:17.423Z,10.43
2018-03-23T17:25:44.916Z,10.40
2018-03-23T17:28:13.238Z,11.57
2018-03-23T17:30:40.727Z,12.10
2018-03-23T17:33:08.251Z,13.40
2018-03-23T17:35:35.808Z,13.67
2018-03-23T17:38:03.355Z,10.90
2018-03-23T17:40:30.872Z,12.43
2018-03-23T17:42:59.127Z,11.90
2018-03-23T17:45:26.662Z,12.40
2018-03-23T17:47:54.163Z,11.87
2018-03-23T17:50:21.687Z,10.87
2018-03-23T17:52:49.184Z,10.87
2018-03-23T17:55:16.720Z,10.97
2018-03-23T17:57:44.615Z,10.83
2018-03-23T18:00:12.148Z,11.00
2018-03-23T18:02:39.736Z,11.80
2018-03-23T18:05:08.083Z,11.00
2018-03-23T18:07:35.701Z,10.73
2018-03-23T18:10:04.082Z,11.43
2018-03-23T18:12:32.348Z,10.83
2018-03-23T18:14:59.860Z,11.03
2018-03-23T18:17:28.108Z,10.53
2018-03-23T18:19:55.619Z,10.83
2018-03-23T18:22:24.305Z,12.60
2018-03-23T18:24:53.643Z,11.73
2018-03-23T18:27:21.895Z,12.63
2018-03-23T18:29:49.397Z,10.47
2018-03-23T18:32:16.924Z,10.73
2018-03-23T18:34:44.444Z,10.93
2018-03-23T18:37:12.018Z,13.57
2018-03-23T18:39:39.568Z,11.93
2018-03-23T18:42:07.057Z,10.97
2018-03-23T18:44:35.318Z,11.70
2018-03-23T18:47:02.846Z,12.03
2018-03-23T18:49:30.332Z,11.10
2018-03-23T18:51:57.883Z,13.70
2018-03-23T18:54:25.372Z,12.20
2018-03-23T18:56:52.951Z,12.60
2018-03-23T18:59:20.442Z,12.30
2018-03-23T19:01:47.968Z,12.83
2018-03-23T19:04:15.481Z,13.13
2018-03-23T19:06:42.993Z,12.30
2018-03-23T19:09:11.245Z,12.07
2018-03-23T19:11:38.793Z,13.80
2018-03-23T19:14:06.363Z,13.90
2018-03-23T19:16:34.331Z,13.00
2018-03-23T19:19:03.558Z,12.63
2018-03-23T19:21:33.746Z,13.50
2018-03-23T19:24:04.656Z,14.17
2018-03-23T19:26:32.187Z,13.53
2018-03-23T19:28:59.684Z,11.40
2018-03-23T19:31:27.204Z,12.53
2018-03-23T19:33:54.691Z,10.63
2018-03-23T19:36:22.971Z,12.60
2018-03-23T19:38:51.285Z,10.20
2018-03-23T19:41:18.840Z,12.33
2018-03-23T19:43:47.101Z,11.20
2018-03-23T19:46:14.633Z,12.03
2018-03-23T19:48:42.147Z,11.33
2018-03-23T19:51:09.691Z,11.20
2018-03-23T19:53:37.181Z,12.50
2018-03-23T19:56:04.700Z,11.57
2018-03-23T19:58:32.199Z,11.93
2018-03-23T20:01:28.805Z,11.37
2018-03-23T20:03:56.311Z,10.97
2018-03-23T20:06:24.600Z,10.57
2018-03-23T20:08:52.095Z,11.20
2018-03-23T20:11:19.631Z,11.50
2018-03-23T20:13:52.895Z,12.03
2018-03-23T20:16:20.443Z,11.73
2018-03-23T20:18:47.971Z,11.67
2018-03-23T20:21:16.247Z,11.90
2018-03-23T20:23:43.758Z,11.53
2018-03-23T20:26:11.279Z,11.20
2018-03-23T20:28:40.791Z,11.23
2018-03-23T20:31:08.311Z,10.67
2018-03-23T20:33:35.844Z,11.07
2018-03-23T20:36:04.233Z,10.27
2018-03-23T20:38:31.735Z,11.43
2018-03-23T20:40:59.282Z,11.70
2018-03-23T20:43:27.331Z,11.30
2018-03-23T20:45:55.415Z,12.70
2018-03-23T20:48:22.915Z,11.07
2018-03-23T20:50:50.400Z,11.63
2018-03-23T20:53:18.704Z,12.03
2018-03-23T20:55:46.201Z,11.23
2018-03-23T20:58:13.739Z,10.77
2018-03-23T21:00:41.984Z,11.47
2018-03-23T21:03:09.502Z,12.20
2018-03-23T21:05:37.804Z,11.90
2018-03-23T21:08:05.324Z,11.63
2018-03-23T21:10:32.831Z,11.73
2018-03-23T21:13:00.372Z,12.00
2018-03-23T21:15:27.915Z,12.73
2018-03-23T21:17:55.476Z,11.40
2018-03-23T21:20:22.967Z,13.27
2018-03-23T21:22:50.523Z,13.77
2018-03-23T21:25:18.019Z,12.83
2018-03-23T21:27:45.553Z,12.70
2018-03-23T21:30:13.056Z,13.10
2018-03-23T21:32:40.599Z,12.50
2018-03-23T21:35:08.087Z,12.80
2018-03-23T21:37:35.600Z,12.17
2018-03-23T21:40:03.095Z,13.27
2018-03-23T21:42:32.308Z,12.27
2018-03-23T21:44:59.808Z,13.70
2018-03-23T21:47:27.752Z,12.57
2018-03-23T21:49:55.491Z,12.43
2018-03-23T21:52:22.978Z,11.87
2018-03-23T21:54:50.487Z,12.60
2018-03-23T21:57:17.992Z,11.77
2018-03-23T21:59:45.516Z,11.73
2018-03-23T22:02:13.793Z,10.20
2018-03-23T22:04:42.085Z,11.43
2018-03-23T22:07:09.643Z,10.90
2018-03-23T22:09:37.114Z,9.97
2018-03-23T22:12:04.629Z,10.63
2018-03-23T22:14:32.179Z,10.90
2018-03-23T22:17:00.432Z,11.23
2018-03-23T22:19:28.051Z,11.00
2018-03-23T22:21:55.579Z,12.30
2018-03-23T22:24:23.086Z,10.07
2018-03-23T22:26:51.383Z,11.80
2018-03-23T22:29:18.898Z,9.53
2018-03-23T22:31:46.383Z,10.67
2018-03-23T22:34:13.920Z,10.67
2018-03-23T22:36:41.404Z,11.50
2018-03-23T22:39:08.937Z,11.20
2018-03-23T22:41:37.287Z,9.73
2018-03-23T22:44:04.799Z,9.23
2018-03-23T22:46:33.052Z,10.30
2018-03-23T22:49:00.587Z,10.60
2018-03-23T22:51:28.064Z,9.13
2018-03-23T22:53:55.585Z,10.67
2018-03-23T22:56:23.087Z,9.67
2018-03-23T22:58:50.631Z,10.40
2018-03-23T23:01:18.116Z,9.20
2018-03-23T23:03:46.402Z,10.30
2018-03-23T23:06:13.876Z,9.23
2018-03-23T23:08:42.152Z,10.10
2018-03-23T23:11:09.636Z,9.97
2018-03-23T23:13:38.083Z,10.07
2018-03-23T23:16:05.564Z,10.20
2018-03-23T23:18:33.125Z,10.10
2018-03-23T23:21:00.616Z,10.97
2018-03-23T23:23:28.127Z,10.50
2018-03-23T23:25:55.615Z,9.23
2018-03-23T23:28:23.126Z,10.23
2018-03-23T23:30:50.616Z,9.27
2018-03-23T23:33:18.123Z,10.70
2018-03-23T23:35:45.596Z,8.53
2018-03-23T23:38:13.114Z,10.37
2018-03-23T23:40:40.596Z,11.40
2018-03-23T23:43:08.119Z,10.70
2018-03-23T23:45:35.652Z,11.47
2018-03-23T23:48:03.120Z,12.53
2018-03-23T23:50:31.363Z,12.13
2018-03-23T23:52:58.875Z,12.93
2018-03-23T23:55:27.126Z,11.37
2018-03-23T23:57:54.649Z,12.63
